createdAt,value
2022-12-04T00:02:07.499Z,3.11
2022-12-04T00:07:06.904Z,2.87
2022-12-04T00:12:04.959Z,3.00
2022-12-04T00:17:03.250Z,2.92
2022-12-04T00:22:02.926Z,2.82
2022-12-04T00:27:04.481Z,2.60
2022-12-04T00:32:02.408Z,2.88
2022-12-04T00:37:00.373Z,2.98
2022-12-04T00:41:58.240Z,2.86
2022-12-04T00:47:00.159Z,3.10
2022-12-04T00:52:00.419Z,3.13
2022-12-04T00:56:58.423Z,3.26
2022-12-04T01:01:57.848Z,3.48
2022-12-04T01:07:03.213Z,3.44
2022-12-04T01:12:02.978Z,3.49
2022-12-04T01:17:02.340Z,3.57
2022-12-04T01:22:00.291Z,3.68
2022-12-04T01:26:58.211Z,3.69
2022-12-04T01:31:56.414Z,3.62
2022-12-04T01:36:56.504Z,3.74
2022-12-04T01:41:54.564Z,3.62
2022-12-04T01:46:53.062Z,3.47
2022-12-04T01:51:53.035Z,3.49
2022-12-04T01:56:54.428Z,3.68
2022-12-04T02:01:57.667Z,3.72
2022-12-04T02:06:56.127Z,3.74
2022-12-04T02:11:59.002Z,3.55
2022-12-04T02:17:01.213Z,3.62
2022-12-04T02:22:00.758Z,3.69
2022-12-04T02:27:03.125Z,3.57
2022-12-04T02:32:07.317Z,3.68
2022-12-04T02:37:10.026Z,3.81
2022-12-04T02:42:13.077Z,3.54
2022-12-04T02:47:13.611Z,3.76
2022-12-04T02:52:12.884Z,3.98
2022-12-04T02:57:14.662Z,3.79
2022-12-04T03:02:16.936Z,3.86
2022-12-04T03:07:16.199Z,4.05
2022-12-04T03:12:16.790Z,3.77
2022-12-04T03:17:17.800Z,3.76
2022-12-04T03:22:18.715Z,3.74
2022-12-04T03:27:18.860Z,3.97
2022-12-04T03:32:20.725Z,3.77
2022-12-04T03:37:21.265Z,3.80
2022-12-04T03:42:20.053Z,3.93
2022-12-04T03:47:22.204Z,3.93
2022-12-04T03:52:22.949Z,3.91
2022-12-04T03:57:24.086Z,3.79
2022-12-04T04:02:26.059Z,3.74
2022-12-04T04:07:30.324Z,3.65
2022-12-04T04:12:34.270Z,3.82
2022-12-04T04:17:54.039Z,3.53
2022-12-04T04:23:11.322Z,3.82
2022-12-04T04:28:24.119Z,4.03
2022-12-04T04:33:23.583Z,3.88
2022-12-04T04:38:25.175Z,3.65
2022-12-04T04:43:27.138Z,3.97
2022-12-04T04:48:29.233Z,3.92
2022-12-04T04:53:30.458Z,3.83
2022-12-04T04:58:28.413Z,4.22
2022-12-04T05:03:28.277Z,4.20
2022-12-04T05:08:26.716Z,4.10
2022-12-04T05:13:24.893Z,3.87
2022-12-04T05:18:22.904Z,4.15
2022-12-04T05:23:22.173Z,4.33
2022-12-04T05:28:20.120Z,4.32
2022-12-04T05:33:18.177Z,4.32
2022-12-04T05:38:16.030Z,4.35
2022-12-04T05:43:15.592Z,4.32
2022-12-04T05:48:13.662Z,4.24
2022-12-04T05:53:11.545Z,4.40
2022-12-04T05:58:09.408Z,4.40
2022-12-04T06:03:09.215Z,4.32
2022-12-04T06:08:07.556Z,4.47
2022-12-04T06:13:06.267Z,4.61
2022-12-04T06:18:04.216Z,4.38
2022-12-04T06:23:03.489Z,4.32
2022-12-04T06:28:01.530Z,4.15
2022-12-04T06:33:01.922Z,4.02
2022-12-04T06:37:59.870Z,4.43
2022-12-04T06:43:01.157Z,4.09
2022-12-04T06:47:59.015Z,4.25
2022-12-04T06:52:56.814Z,4.15
2022-12-04T06:57:55.083Z,4.05
2022-12-04T07:02:56.638Z,4.32
2022-12-04T07:07:54.682Z,4.09
2022-12-04T07:12:53.080Z,4.36
2022-12-04T07:17:51.117Z,4.56
2022-12-04T07:22:50.492Z,4.85
2022-12-04T07:27:48.533Z,4.76
2022-12-04T07:32:46.369Z,4.94
2022-12-04T07:37:44.304Z,4.98
2022-12-04T07:42:43.853Z,4.85
2022-12-04T07:47:41.901Z,5.02
2022-12-04T07:52:41.664Z,5.16
2022-12-04T07:57:39.697Z,5.36
2022-12-04T08:02:39.053Z,5.44
2022-12-04T08:07:38.394Z,5.23
2022-12-04T08:12:37.187Z,5.12
2022-12-04T08:17:35.291Z,5.47
2022-12-04T08:22:34.813Z,5.55
2022-12-04T08:27:32.831Z,5.56
2022-12-04T08:32:31.107Z,5.21
2022-12-04T08:37:29.287Z,5.46
2022-12-04T08:42:29.169Z,5.43
2022-12-04T08:47:27.130Z,5.49
2022-12-04T08:52:25.681Z,5.55
2022-12-04T08:57:23.836Z,5.63
2022-12-04T09:02:23.427Z,5.82
2022-12-04T09:07:21.388Z,5.35
2022-12-04T09:12:19.391Z,5.56
2022-12-04T09:17:18.195Z,5.65
2022-12-04T09:22:17.914Z,5.99
2022-12-04T09:27:17.068Z,5.98
2022-12-04T09:32:15.508Z,6.17
2022-12-04T09:37:13.575Z,6.42
2022-12-04T09:42:20.994Z,6.23
2022-12-04T09:47:22.962Z,6.48
2022-12-04T09:52:25.339Z,6.32
2022-12-04T09:57:26.929Z,6.46
2022-12-04T10:02:34.962Z,6.88
2022-12-04T10:07:34.873Z,6.58
2022-12-04T10:12:41.174Z,6.73
2022-12-04T10:17:49.720Z,6.68
2022-12-04T10:22:53.452Z,6.65
2022-12-04T10:27:55.009Z,6.41
2022-12-04T10:32:57.708Z,6.62
2022-12-04T10:37:57.990Z,6.54
2022-12-04T10:43:00.778Z,6.74
2022-12-04T10:47:59.493Z,6.74
2022-12-04T10:52:57.986Z,6.54
2022-12-04T10:57:58.515Z,6.63
2022-12-04T11:02:57.568Z,6.30
2022-12-04T11:08:07.633Z,6.53
2022-12-04T11:13:15.318Z,6.50
2022-12-04T11:18:17.519Z,6.93
2022-12-04T11:23:16.204Z,7.23
2022-12-04T11:28:39.912Z,7.06
2022-12-04T11:33:38.544Z,7.21
2022-12-04T11:38:36.689Z,6.96
2022-12-04T11:43:37.870Z,7.03
2022-12-04T11:48:42.867Z,7.03
2022-12-04T11:53:44.656Z,6.99
2022-12-04T11:58:53.230Z,7.07
2022-12-04T12:03:58.114Z,6.92
2022-12-04T12:09:10.218Z,7.11
2022-12-04T12:14:14.515Z,7.04
2022-12-04T12:19:28.468Z,7.07
2022-12-04T12:24:30.066Z,6.81
2022-12-04T12:29:38.650Z,6.97
2022-12-04T12:34:40.504Z,6.97
2022-12-04T12:39:40.589Z,7.18
2022-12-04T12:44:51.669Z,7.15
2022-12-04T12:49:57.570Z,6.84
2022-12-04T12:54:58.242Z,7.03
2022-12-04T13:00:01.639Z,6.79
2022-12-04T13:05:01.651Z,7.05
2022-12-04T13:10:03.653Z,7.09
2022-12-04T13:15:03.322Z,7.30
2022-12-04T13:20:09.590Z,7.41
2022-12-04T13:25:14.441Z,7.15
2022-12-04T13:30:25.883Z,7.07
2022-12-04T13:35:29.069Z,7.25
2022-12-04T13:40:38.649Z,7.16
2022-12-04T13:45:40.721Z,7.06
2022-12-04T13:50:42.661Z,7.05
2022-12-04T13:55:41.039Z,6.82
2022-12-04T14:00:45.061Z,6.63
2022-12-04T14:05:43.809Z,6.75
2022-12-04T14:10:44.126Z,6.90
2022-12-04T14:15:43.588Z,7.26
2022-12-04T14:20:43.589Z,7.09
2022-12-04T14:25:41.709Z,6.83
2022-12-04T14:30:40.463Z,6.88
2022-12-04T14:35:47.208Z,6.67
2022-12-04T14:40:46.828Z,6.65
2022-12-04T14:45:46.949Z,6.62
2022-12-04T14:50:51.410Z,6.72
2022-12-04T14:55:53.265Z,6.81
2022-12-04T15:00:52.585Z,7.00
2022-12-04T15:05:52.333Z,6.78
2022-12-04T15:11:08.416Z,6.96
2022-12-04T15:16:09.835Z,6.71
2022-12-04T15:21:11.275Z,6.69
2022-12-04T15:26:14.003Z,6.85
2022-12-04T15:31:16.385Z,6.90
2022-12-04T15:36:18.525Z,6.64
2022-12-04T15:41:30.164Z,6.46
2022-12-04T15:46:32.424Z,6.46
2022-12-04T15:51:31.831Z,6.75
2022-12-04T15:56:37.166Z,6.30
2022-12-04T16:01:43.911Z,6.47
2022-12-04T16:06:48.064Z,6.62
2022-12-04T16:11:58.123Z,6.17
2022-12-04T16:17:01.208Z,6.39
2022-12-04T16:22:04.532Z,6.49
2022-12-04T16:27:03.847Z,6.50
2022-12-04T16:32:03.560Z,6.57
2022-12-04T16:37:04.035Z,6.44
2022-12-04T16:42:16.052Z,6.57
2022-12-04T16:47:14.964Z,6.37
2022-12-04T16:52:14.594Z,6.18
2022-12-04T16:57:12.572Z,6.17
2022-12-04T17:02:16.524Z,6.31
2022-12-04T17:07:15.952Z,6.25
2022-12-04T17:12:14.643Z,6.08
2022-12-04T17:17:13.337Z,6.39
2022-12-04T17:22:13.581Z,6.28
2022-12-04T17:27:16.949Z,6.31
2022-12-04T17:32:15.281Z,6.28
2022-12-04T17:37:13.990Z,6.43
2022-12-04T17:42:17.690Z,6.38
2022-12-04T17:47:16.798Z,6.20
2022-12-04T17:52:14.810Z,6.37
2022-12-04T17:57:18.535Z,6.02
2022-12-04T18:02:17.093Z,6.26
2022-12-04T18:07:15.516Z,6.25
2022-12-04T18:12:15.663Z,6.27
2022-12-04T18:17:14.052Z,6.22
2022-12-04T18:22:12.119Z,6.24
2022-12-04T18:27:10.545Z,6.32
2022-12-04T18:32:12.496Z,6.35
2022-12-04T18:37:11.025Z,6.53
2022-12-04T18:42:11.752Z,6.30
2022-12-04T18:47:11.690Z,6.61
2022-12-04T18:52:09.642Z,6.54
2022-12-04T18:57:08.609Z,6.31
2022-12-04T19:02:06.856Z,6.60
2022-12-04T19:07:06.379Z,6.48
2022-12-04T19:12:07.623Z,6.41
2022-12-04T19:17:05.920Z,6.60
2022-12-04T19:22:04.157Z,6.30
2022-12-04T19:27:11.064Z,6.56
2022-12-04T19:32:09.945Z,6.70
2022-12-04T19:37:08.309Z,6.52
2022-12-04T19:42:08.873Z,6.61
2022-12-04T19:47:07.587Z,6.78
2022-12-04T19:52:06.750Z,6.55
2022-12-04T19:57:07.839Z,6.74
2022-12-04T20:02:07.894Z,6.65
2022-12-04T20:07:08.895Z,6.46
2022-12-04T20:12:09.400Z,6.54
2022-12-04T20:17:10.992Z,6.49
2022-12-04T20:22:09.557Z,6.65
2022-12-04T20:27:07.806Z,6.29
2022-12-04T20:32:06.407Z,6.57
2022-12-04T20:37:05.831Z,6.59
2022-12-04T20:42:04.188Z,6.71
2022-12-04T20:47:02.415Z,6.69
2022-12-04T20:52:00.606Z,6.67
2022-12-04T20:57:00.032Z,6.80
2022-12-04T21:01:59.545Z,6.86
2022-12-04T21:06:59.893Z,6.57
2022-12-04T21:12:00.653Z,6.48
2022-12-04T21:16:59.847Z,6.41
2022-12-04T21:21:58.160Z,6.39
2022-12-04T21:26:57.142Z,6.37
2022-12-04T21:31:57.181Z,6.61
2022-12-04T21:36:55.467Z,6.50
2022-12-04T21:42:11.180Z,6.41
2022-12-04T21:47:10.443Z,6.68
2022-12-04T21:52:23.865Z,6.38
2022-12-04T21:57:23.466Z,6.30
2022-12-04T22:02:23.314Z,6.64
2022-12-04T22:07:21.355Z,6.34
2022-12-04T22:12:47.848Z,6.23
2022-12-04T22:17:39.108Z,6.07
2022-12-04T22:22:38.238Z,6.20
2022-12-04T22:27:36.286Z,6.20
2022-12-04T22:32:34.498Z,6.26
2022-12-04T22:37:33.832Z,6.10
2022-12-04T22:42:31.943Z,6.25
2022-12-04T22:47:30.156Z,6.20
2022-12-04T22:52:30.578Z,5.85
2022-12-04T22:57:31.177Z,5.80
2022-12-04T23:02:29.697Z,6.06
2022-12-04T23:07:28.476Z,5.92
2022-12-04T23:12:28.049Z,5.87
2022-12-04T23:17:32.342Z,5.93
2022-12-04T23:22:30.653Z,6.04
2022-12-04T23:27:28.996Z,6.11
2022-12-04T23:32:28.421Z,5.94
2022-12-04T23:37:26.596Z,5.94
2022-12-04T23:42:24.787Z,6.09
2022-12-04T23:47:23.026Z,5.73
2022-12-04T23:52:22.872Z,5.80
2022-12-04T23:57:21.232Z,5.93
